Startpagina
METAR-TAF:

METAR-TAF

Vliegvelden :

Algiers, Algerije

Luchthaven Houari Boumedienne

breedte: 36-43N, lengte: 003-15E, hoogte: 25 m

Actueel weer

Dit bericht is 20 minuten geleden gemaakt, om 17:30 UTC
Wind 6 kt uit het oostnoordoosten
Temperatuur 15°C
Vochtigheid 82%
Druk 1020 hPa
Zicht 10 km of meer
Weinig wolken op 2600 ft

METAR: DAAG 181730Z 06006KT 9999 FEW026 15/12 Q1020

Tijdstip: 18:50 (17:50 UTC)

Verwachting

Dit bericht is 50 minuten geleden gemaakt, om 17:00 UTC
Verwachting geldig van 18 om 18 UTC tot 19 om 18 UTC
Wind 10 kt uit het noordoosten
Zicht 10 km of meer
Weinig wolken op 2000 ft
Wijzigt naar
van 18 om 19 UTC tot 18 om 21 UTC
Wind 2 kt uit variabele richting
Wijzigt naar
van 19 om 08 UTC tot 19 om 11 UTC
Wind 10 kt uit het noordoosten

TAF: DAAG 181700Z 1818/1918 04010KT 9999 FEW020 BECMG 1819/1821 VRB02KT BECMG 1908/1911 04010KT

Waarnemingen en weersverwachtingen van meer dan 4000 vliegvelden (METAR en TAF).

De beschikbare stations zijn de gele en rode punten op de kaart.

Ga met uw muis naar het station om de naam te zien.

Klik dan om waarnemingen en weersverwachtingen te zien.

kaart wijzigen: klik op de groene knoppen met een zwart kruis om in te zoomen, op de groene knop met een streepje om uit te zoomen of op de groene pijlen voor aangrenzende kaarten.


METAR-TAF: